Pawnee, Oklahoma
Current Conditions -  °F | °C
As of 6:53 AM on Friday 28 Nov 2014 (Local Time) from KSWO Reporting Station
Clear Clear  
Wind Chill: 34°   Ceiling: Unl
Heat Index: 40°   Visibility: 10mi
Dew Point: 28°   Wind: 9mph
Humidity: 63%   Direction: 170°S
Pressure: 30.09"   Gusts: NA
Location:  36.34°N, 96.8°W
Report Text: KSWO 281253Z AUTO 17008KT 10SM CLR 04/M02 A3009 RMK AO2 SLP193 T00441022
Loading
Personal Weather Stations






























Interactive Weather Map New forecast layout! Learn more

10-Day Weather Forecast

Advertisements
Track Severe Weather on mobile